createdAt,value
2019-02-04T00:01:38.188Z,9.60
2019-02-04T00:04:08.481Z,12.30
2019-02-04T00:06:38.892Z,11.33
2019-02-04T00:09:09.293Z,7.70
2019-02-04T00:11:39.611Z,11.93
2019-02-04T00:14:10.208Z,5.13
2019-02-04T00:16:41.324Z,13.83
2019-02-04T00:19:11.886Z,12.90
2019-02-04T00:21:42.143Z,12.33
2019-02-04T00:24:12.432Z,11.67
2019-02-04T00:26:51.382Z,10.53
2019-02-04T00:29:14.733Z,8.53
2019-02-04T00:31:45.012Z,11.97
2019-02-04T00:34:15.288Z,11.37
2019-02-04T00:36:45.559Z,11.63
2019-02-04T00:39:16.101Z,14.67
2019-02-04T00:41:46.571Z,11.03
2019-02-04T00:44:16.824Z,10.07
2019-02-04T00:46:52.151Z,9.50
2019-02-04T00:49:19.038Z,6.00
2019-02-04T00:51:49.302Z,9.97
2019-02-04T00:54:19.812Z,13.63
2019-02-04T00:56:51.050Z,8.73
2019-02-04T00:59:21.292Z,8.07
2019-02-04T01:01:51.590Z,11.00
2019-02-04T01:04:21.848Z,10.07
2019-02-04T01:06:52.478Z,11.13
2019-02-04T01:09:23.286Z,12.73
2019-02-04T01:11:53.564Z,11.57
2019-02-04T01:14:23.831Z,10.73
2019-02-04T01:17:03.213Z,11.87
2019-02-04T01:19:27.180Z,9.57
2019-02-04T01:21:57.622Z,11.07
2019-02-04T01:24:27.885Z,9.90
2019-02-04T01:26:58.130Z,7.20
2019-02-04T01:29:28.374Z,12.10
2019-02-04T01:31:58.646Z,10.83
2019-02-04T01:34:28.904Z,8.77
2019-02-04T01:36:59.193Z,8.77
2019-02-04T01:39:29.463Z,5.87
2019-02-04T01:41:59.707Z,7.70
2019-02-04T01:44:31.259Z,9.33
2019-02-04T01:47:01.537Z,10.33
2019-02-04T01:49:31.784Z,9.63
2019-02-04T01:52:02.058Z,7.80
2019-02-04T01:54:32.577Z,7.97
2019-02-04T01:57:02.829Z,7.63
2019-02-04T01:59:33.365Z,8.63
2019-02-04T02:02:03.625Z,6.33
2019-02-04T02:04:33.948Z,7.60
2019-02-04T02:07:04.201Z,6.80
2019-02-04T02:09:37.415Z,7.40
2019-02-04T02:12:08.180Z,8.07
2019-02-04T02:14:38.415Z,4.97
2019-02-04T02:17:08.677Z,7.27
2019-02-04T02:19:38.932Z,6.70
2019-02-04T02:22:09.204Z,4.47
2019-02-04T02:24:39.856Z,5.70
2019-02-04T02:27:10.122Z,7.43
2019-02-04T02:29:40.398Z,7.70
2019-02-04T02:32:10.653Z,7.50
2019-02-04T02:34:40.892Z,7.73
2019-02-04T02:37:11.126Z,7.70
2019-02-04T02:39:41.399Z,6.90
2019-02-04T02:42:11.667Z,8.57
2019-02-04T02:44:41.953Z,7.43
2019-02-04T02:47:12.189Z,8.17
2019-02-04T02:49:42.432Z,7.50
2019-02-04T02:52:13.111Z,9.13
2019-02-04T02:54:43.383Z,7.50
2019-02-04T02:57:14.704Z,10.63
2019-02-04T02:59:45.036Z,8.10
2019-02-04T03:02:15.268Z,8.27
2019-02-04T03:04:45.518Z,6.37
2019-02-04T03:07:15.752Z,8.57
2019-02-04T03:09:46.018Z,8.53
2019-02-04T03:12:16.285Z,7.33
2019-02-04T03:14:46.550Z,7.43
2019-02-04T03:17:16.813Z,7.10
2019-02-04T03:19:47.105Z,5.07
2019-02-04T03:22:18.342Z,5.20
2019-02-04T03:24:48.590Z,5.37
2019-02-04T03:27:18.830Z,9.20
2019-02-04T03:29:49.089Z,6.57
2019-02-04T03:32:19.710Z,3.30
2019-02-04T03:34:49.937Z,5.33
2019-02-04T03:37:20.641Z,5.50
2019-02-04T03:39:50.897Z,9.50
2019-02-04T03:42:21.150Z,7.60
2019-02-04T03:44:51.674Z,6.80
2019-02-04T03:47:21.944Z,8.53
2019-02-04T03:49:52.206Z,9.00
2019-02-04T03:52:22.533Z,5.63
2019-02-04T03:54:52.774Z,5.90
2019-02-04T03:57:23.024Z,7.97
2019-02-04T03:59:53.300Z,8.83
2019-02-04T04:02:23.566Z,5.90
2019-02-04T04:04:53.812Z,7.73
2019-02-04T04:07:24.062Z,8.40
2019-02-04T04:09:54.475Z,6.97
2019-02-04T04:12:24.739Z,8.27
2019-02-04T04:14:55.071Z,9.27
2019-02-04T04:17:25.321Z,9.57
2019-02-04T04:19:55.564Z,6.87
2019-02-04T04:22:25.804Z,7.97
2019-02-04T04:24:56.433Z,7.37
2019-02-04T04:27:26.707Z,10.13
2019-02-04T04:29:56.959Z,9.93
2019-02-04T04:32:30.092Z,12.40
2019-02-04T04:35:00.510Z,10.53
2019-02-04T04:37:31.257Z,11.53
2019-02-04T04:40:01.498Z,12.33
2019-02-04T04:42:31.783Z,12.87
2019-02-04T04:45:02.040Z,10.97
2019-02-04T04:47:32.296Z,11.93
2019-02-04T04:50:02.561Z,9.27
2019-02-04T04:52:32.807Z,11.73
2019-02-04T04:55:03.474Z,14.00
2019-02-04T04:57:33.749Z,14.33
2019-02-04T05:00:09.185Z,13.73
2019-02-04T05:02:39.541Z,18.20
2019-02-04T05:05:11.554Z,17.10
2019-02-04T05:07:41.818Z,14.33
2019-02-04T05:10:14.630Z,13.07
2019-02-04T05:12:44.875Z,10.43
2019-02-04T05:15:20.383Z,10.60
2019-02-04T05:17:52.649Z,9.80
2019-02-04T05:20:22.651Z,10.67
2019-02-04T05:22:52.898Z,8.60
2019-02-04T05:25:23.148Z,14.30
2019-02-04T05:27:53.809Z,17.13
2019-02-04T05:30:25.101Z,16.37
2019-02-04T05:32:55.349Z,14.00
2019-02-04T05:35:25.626Z,16.00
2019-02-04T05:37:55.901Z,13.93
2019-02-04T05:40:26.259Z,14.70
2019-02-04T05:42:56.815Z,14.10
2019-02-04T05:45:27.035Z,15.63
2019-02-04T05:47:57.290Z,14.03
2019-02-04T05:50:27.605Z,14.30
2019-02-04T05:52:57.866Z,11.23
2019-02-04T05:55:30.507Z,13.77
2019-02-04T05:58:00.100Z,7.77
2019-02-04T06:00:34.892Z,8.13
2019-02-04T06:03:05.133Z,8.90
2019-02-04T06:05:35.416Z,11.37
2019-02-04T06:08:05.678Z,12.20
2019-02-04T06:10:35.995Z,16.90
2019-02-04T06:13:06.270Z,6.13
2019-02-04T06:15:36.509Z,18.93
2019-02-04T06:18:06.760Z,12.60
2019-02-04T06:20:37.337Z,12.47
2019-02-04T06:23:07.628Z,8.60
2019-02-04T06:25:37.867Z,19.43
2019-02-04T06:28:08.166Z,13.73
2019-02-04T06:30:38.423Z,15.97
2019-02-04T06:33:08.837Z,8.80
2019-02-04T06:35:39.097Z,10.13
2019-02-04T06:38:09.335Z,11.60
2019-02-04T06:40:39.619Z,12.93
2019-02-04T06:43:09.878Z,17.70
2019-02-04T06:45:40.154Z,14.30
2019-02-04T06:48:10.624Z,12.33
2019-02-04T06:50:40.889Z,12.63
2019-02-04T06:53:11.143Z,10.43
2019-02-04T06:55:41.400Z,10.83
2019-02-04T06:58:11.659Z,13.60
2019-02-04T07:00:42.342Z,11.10
2019-02-04T07:03:12.583Z,11.27
2019-02-04T07:05:44.048Z,10.20
2019-02-04T07:08:14.477Z,13.50
2019-02-04T07:10:44.831Z,10.93
2019-02-04T07:13:15.819Z,12.80
2019-02-04T07:15:46.077Z,11.63
2019-02-04T07:18:16.513Z,9.63
2019-02-04T07:20:46.701Z,6.33
2019-02-04T07:23:16.961Z,9.93
2019-02-04T07:25:47.206Z,11.33
2019-02-04T07:28:17.898Z,9.10
2019-02-04T07:30:48.143Z,7.93
2019-02-04T07:33:18.464Z,13.53
2019-02-04T07:35:48.713Z,8.60
2019-02-04T07:38:18.995Z,11.77
2019-02-04T07:40:49.447Z,11.37
2019-02-04T07:43:20.973Z,11.97
2019-02-04T07:45:51.266Z,14.50
2019-02-04T07:48:21.507Z,13.70
2019-02-04T07:50:51.757Z,11.03
2019-02-04T07:53:21.999Z,11.87
2019-02-04T07:55:52.619Z,9.47
2019-02-04T07:58:23.940Z,10.57
2019-02-04T08:00:54.178Z,10.90
2019-02-04T08:03:24.450Z,12.90
2019-02-04T08:05:54.706Z,8.97
2019-02-04T08:08:24.976Z,11.03
2019-02-04T08:10:55.241Z,13.43
2019-02-04T08:13:26.635Z,11.37
2019-02-04T08:15:56.892Z,13.83
2019-02-04T08:18:27.203Z,5.60
2019-02-04T08:20:57.445Z,9.27
2019-02-04T08:23:27.691Z,16.23
2019-02-04T08:25:58.308Z,13.63
2019-02-04T08:28:28.551Z,8.97
2019-02-04T08:30:58.823Z,15.07
2019-02-04T08:33:29.080Z,13.53
2019-02-04T08:35:59.698Z,15.37
2019-02-04T08:38:29.970Z,12.37
2019-02-04T08:41:00.249Z,13.00
2019-02-04T08:43:30.518Z,10.70
2019-02-04T08:46:00.814Z,10.27
2019-02-04T08:48:31.073Z,14.10
2019-02-04T08:51:01.594Z,9.57
2019-02-04T08:53:31.841Z,13.57
2019-02-04T08:56:02.100Z,12.43
2019-02-04T08:58:32.358Z,14.03
2019-02-04T09:01:02.634Z,14.83
2019-02-04T09:03:32.870Z,17.20
2019-02-04T09:06:03.124Z,15.20
2019-02-04T09:08:33.400Z,10.27
2019-02-04T09:11:04.160Z,16.27
2019-02-04T09:13:35.237Z,16.23
2019-02-04T09:16:05.502Z,17.37
2019-02-04T09:18:44.370Z,15.10
2019-02-04T09:21:10.766Z,17.93
2019-02-04T09:23:41.030Z,16.73
2019-02-04T09:26:11.279Z,16.13
2019-02-04T09:28:41.612Z,13.77
2019-02-04T09:31:11.925Z,10.00
2019-02-04T09:33:42.198Z,12.57
2019-02-04T09:36:12.521Z,11.43
2019-02-04T09:38:42.795Z,11.57
2019-02-04T09:41:13.034Z,14.33
2019-02-04T09:43:44.823Z,12.27
2019-02-04T09:46:15.372Z,17.47
2019-02-04T09:48:45.650Z,19.03
2019-02-04T09:51:15.905Z,17.27
2019-02-04T09:53:46.225Z,14.10
2019-02-04T09:56:16.473Z,22.43
2019-02-04T09:58:46.723Z,14.07
2019-02-04T10:01:18.215Z,14.87
2019-02-04T10:03:48.463Z,16.17
2019-02-04T10:06:18.723Z,14.30
2019-02-04T10:08:48.958Z,14.70
2019-02-04T10:11:20.187Z,11.37
2019-02-04T10:13:50.626Z,11.80
2019-02-04T10:16:20.896Z,10.57
2019-02-04T10:18:51.194Z,10.17
2019-02-04T10:21:21.399Z,10.53
2019-02-04T10:23:51.746Z,10.60
2019-02-04T10:26:22.423Z,9.77
2019-02-04T10:28:52.730Z,10.93
2019-02-04T10:31:23.024Z,10.67
2019-02-04T10:33:53.388Z,10.17
2019-02-04T10:36:23.602Z,10.63
2019-02-04T10:38:53.893Z,11.53
2019-02-04T10:41:24.098Z,9.47
2019-02-04T10:43:54.410Z,11.17
2019-02-04T10:46:24.663Z,12.27
2019-02-04T10:48:55.036Z,10.27
2019-02-04T10:51:25.423Z,9.83
2019-02-04T10:53:55.860Z,11.73
2019-02-04T10:56:26.204Z,12.17
2019-02-04T10:58:56.450Z,10.73
2019-02-04T11:01:26.697Z,13.70
2019-02-04T11:03:56.947Z,11.03
2019-02-04T11:06:27.307Z,12.83
2019-02-04T11:08:57.520Z,11.20
2019-02-04T11:11:27.881Z,16.67
2019-02-04T11:13:58.256Z,14.67
2019-02-04T11:16:28.556Z,11.47
2019-02-04T11:18:58.926Z,14.00
2019-02-04T11:21:29.482Z,13.10
2019-02-04T11:23:59.926Z,13.43
2019-02-04T11:26:30.584Z,13.10
2019-02-04T11:29:00.894Z,13.87
2019-02-04T11:31:31.247Z,14.97
2019-02-04T11:34:02.969Z,14.57
2019-02-04T11:36:33.218Z,19.50
2019-02-04T11:39:05.166Z,15.87
2019-02-04T11:41:35.563Z,16.80
2019-02-04T11:44:09.043Z,18.10
2019-02-04T11:46:39.672Z,16.90
2019-02-04T11:49:09.979Z,15.50
2019-02-04T11:51:40.235Z,17.03
2019-02-04T11:54:10.531Z,13.30
2019-02-04T11:56:40.797Z,17.50
2019-02-04T11:59:11.819Z,19.67
2019-02-04T12:01:42.076Z,15.37
2019-02-04T12:04:13.436Z,15.37
2019-02-04T12:06:44.009Z,16.83
2019-02-04T12:09:14.432Z,16.57
2019-02-04T12:11:44.975Z,17.00
2019-02-04T12:14:16.879Z,15.73
2019-02-04T12:16:47.161Z,16.50
2019-02-04T12:19:17.422Z,13.63
2019-02-04T12:21:47.769Z,20.10
2019-02-04T12:24:18.029Z,21.63
2019-02-04T12:26:48.560Z,21.77
2019-02-04T12:29:18.986Z,25.63
2019-02-04T12:31:50.327Z,21.00
2019-02-04T12:34:20.607Z,23.60
2019-02-04T12:36:50.912Z,23.30
2019-02-04T12:39:21.956Z,24.70
2019-02-04T12:41:52.238Z,20.30
2019-02-04T12:44:22.516Z,23.93
2019-02-04T12:46:52.833Z,22.83
2019-02-04T12:49:23.204Z,17.83
2019-02-04T12:51:53.601Z,19.83
2019-02-04T12:54:26.579Z,22.67
2019-02-04T12:56:57.235Z,20.57
2019-02-04T12:59:27.519Z,18.13
2019-02-04T13:01:57.765Z,15.60
2019-02-04T13:04:28.019Z,22.17
2019-02-04T13:06:58.584Z,24.93
2019-02-04T13:09:28.859Z,26.27
2019-02-04T13:11:59.179Z,23.00
2019-02-04T13:14:29.457Z,26.03
2019-02-04T13:16:59.742Z,27.17
2019-02-04T13:19:31.635Z,23.27
2019-02-04T13:22:27.085Z,19.80
2019-02-04T13:24:57.382Z,19.90
2019-02-04T13:27:27.608Z,19.83
2019-02-04T13:29:58.185Z,9.47
2019-02-04T13:32:30.226Z,14.53
2019-02-04T13:35:00.487Z,20.43
2019-02-04T13:37:30.831Z,20.60
2019-02-04T13:40:05.654Z,19.33
2019-02-04T13:42:35.972Z,19.43
2019-02-04T13:45:09.491Z,21.47
2019-02-04T13:47:39.774Z,19.23
2019-02-04T13:50:11.498Z,21.00
2019-02-04T13:52:41.743Z,18.33
2019-02-04T13:55:18.304Z,21.43
2019-02-04T13:57:48.607Z,17.60
2019-02-04T14:00:19.038Z,19.30
2019-02-04T14:02:58.807Z,17.70
2019-02-04T14:05:21.329Z,17.43
2019-02-04T14:07:51.551Z,15.67
2019-02-04T14:10:27.641Z,12.47
2019-02-04T14:12:57.961Z,16.77
2019-02-04T14:15:29.015Z,12.67
2019-02-04T14:17:59.712Z,15.13
2019-02-04T14:20:30.251Z,14.50
2019-02-04T14:23:00.786Z,15.47
2019-02-04T14:25:32.771Z,16.13
2019-02-04T14:28:14.699Z,15.80
2019-02-04T14:30:46.552Z,15.70
2019-02-04T14:33:17.867Z,15.67
2019-02-04T14:35:48.134Z,18.50
2019-02-04T14:38:18.425Z,18.40
2019-02-04T14:40:48.747Z,16.93
2019-02-04T14:43:22.470Z,18.27
2019-02-04T14:46:13.890Z,18.00
2019-02-04T14:49:11.114Z,19.10
2019-02-04T14:51:59.292Z,18.77
2019-02-04T14:55:05.248Z,25.17
2019-02-04T14:57:55.267Z,18.73
2019-02-04T15:00:37.918Z,22.50
2019-02-04T15:03:19.659Z,20.83
2019-02-04T15:09:35.845Z,17.33
2019-02-04T15:12:19.235Z,19.23
2019-02-04T15:15:13.696Z,19.07
2019-02-04T15:17:51.330Z,18.47
2019-02-04T15:20:36.917Z,20.30
2019-02-04T15:23:33.167Z,23.30
2019-02-04T15:26:09.817Z,19.23
2019-02-04T15:28:46.355Z,19.40
2019-02-04T15:35:10.006Z,22.17
2019-02-04T15:38:03.026Z,16.10
2019-02-04T15:40:45.340Z,16.53
2019-02-04T15:43:21.668Z,21.03
2019-02-04T15:46:07.654Z,17.97
2019-02-04T15:48:41.239Z,19.77
2019-02-04T15:51:14.868Z,22.83
2019-02-04T15:53:45.218Z,20.43
2019-02-04T15:56:15.639Z,16.80
2019-02-04T15:58:46.259Z,18.43
2019-02-04T16:01:16.702Z,20.27
2019-02-04T16:03:46.939Z,21.10
2019-02-04T16:06:17.237Z,17.17
2019-02-04T16:08:47.861Z,17.13
2019-02-04T16:11:18.165Z,18.03
2019-02-04T16:13:48.500Z,21.47
2019-02-04T16:16:18.821Z,14.83
2019-02-04T16:18:50.568Z,17.27
2019-02-04T16:21:23.692Z,16.37
2019-02-04T16:23:54.840Z,21.77
2019-02-04T16:26:25.119Z,18.13
2019-02-04T16:28:55.461Z,26.27
2019-02-04T16:31:25.720Z,19.33
2019-02-04T16:33:56.113Z,19.07
2019-02-04T16:36:26.859Z,18.63
2019-02-04T16:38:57.430Z,18.87
2019-02-04T16:41:27.752Z,15.40
2019-02-04T16:43:58.027Z,18.67
2019-02-04T16:46:29.745Z,17.23
2019-02-04T16:49:00.473Z,15.60
2019-02-04T16:51:30.894Z,18.33
2019-02-04T16:54:03.712Z,16.97
2019-02-04T16:56:36.826Z,17.83
2019-02-04T16:59:10.613Z,16.20
2019-02-04T17:01:41.741Z,15.30
2019-02-04T17:04:12.502Z,14.53
2019-02-04T17:06:42.764Z,19.77
2019-02-04T17:09:15.144Z,17.27
2019-02-04T17:11:46.067Z,19.67
2019-02-04T17:14:16.815Z,23.77
2019-02-04T17:16:47.143Z,19.37
2019-02-04T17:19:19.781Z,18.47
2019-02-04T17:21:50.063Z,22.70
2019-02-04T17:24:20.533Z,29.77
2019-02-04T17:26:50.832Z,24.07
2019-02-04T17:29:21.107Z,21.37
2019-02-04T17:31:51.444Z,18.00
2019-02-04T17:34:21.738Z,23.10
2019-02-04T17:36:52.099Z,29.93
2019-02-04T17:39:25.883Z,30.53
2019-02-04T17:41:56.340Z,33.13
2019-02-04T17:44:27.153Z,24.10
2019-02-04T17:46:59.564Z,20.33
2019-02-04T18:04:53.328Z,27.10
2019-02-04T18:07:23.667Z,24.13
2019-02-04T18:09:53.966Z,19.47
2019-02-04T18:12:24.345Z,22.67
2019-02-04T18:14:54.975Z,23.10
2019-02-04T18:17:29.163Z,24.57
2019-02-04T18:20:00.008Z,24.97
2019-02-04T18:22:30.312Z,21.87
2019-02-04T18:25:00.868Z,20.70
2019-02-04T18:27:31.124Z,17.77
2019-02-04T18:30:01.759Z,20.40
2019-02-04T18:32:32.245Z,22.60
2019-02-04T18:35:02.497Z,21.57
2019-02-04T18:37:34.321Z,21.80
2019-02-04T18:40:07.510Z,22.80
2019-02-04T18:42:38.419Z,18.97
2019-02-04T18:45:14.265Z,30.23
2019-02-04T18:47:44.589Z,25.80
2019-02-04T18:50:16.684Z,25.97
2019-02-04T18:52:47.496Z,21.97
2019-02-04T18:55:20.130Z,26.77
2019-02-04T18:57:50.499Z,28.83
2019-02-04T19:00:23.521Z,22.93
2019-02-04T19:02:53.804Z,20.80
2019-02-04T19:05:26.728Z,20.53
2019-02-04T19:07:56.519Z,21.47
2019-02-04T19:10:26.816Z,28.33
2019-02-04T19:12:57.104Z,28.23
2019-02-04T19:15:28.507Z,23.87
2019-02-04T19:18:05.127Z,22.93
2019-02-04T19:20:37.859Z,24.10
2019-02-04T19:23:08.563Z,29.20
2019-02-04T19:25:39.245Z,26.60
2019-02-04T19:28:11.703Z,29.77
2019-02-04T19:30:45.681Z,28.70
2019-02-04T19:33:15.985Z,27.90
2019-02-04T19:35:48.214Z,27.40
2019-02-04T19:38:21.347Z,35.90
2019-02-04T19:40:51.651Z,37.97
2019-02-04T19:43:23.702Z,34.47
2019-02-04T19:45:54.747Z,31.43
2019-02-04T19:48:25.621Z,34.30
2019-02-04T19:50:56.072Z,25.47
2019-02-04T19:53:27.377Z,28.60
2019-02-04T19:55:57.899Z,24.03
2019-02-04T19:58:29.989Z,27.20
2019-02-04T20:01:01.170Z,25.53
2019-02-04T20:03:31.754Z,24.67
2019-02-04T20:06:02.010Z,24.53
2019-02-04T20:08:32.998Z,25.83
2019-02-04T20:11:03.325Z,23.90
2019-02-04T20:13:35.985Z,27.57
2019-02-04T20:16:06.314Z,30.70
2019-02-04T20:18:38.403Z,30.33
2019-02-04T20:21:09.032Z,26.73
2019-02-04T20:23:39.557Z,31.40
2019-02-04T20:26:11.141Z,27.00
2019-02-04T20:28:42.116Z,30.37
2019-02-04T20:31:15.253Z,36.10
2019-02-04T20:33:46.037Z,28.13
2019-02-04T20:36:16.286Z,38.17
2019-02-04T20:38:47.670Z,51.60
2019-02-04T20:41:18.401Z,62.23
2019-02-04T20:43:50.112Z,58.00
2019-02-04T20:46:20.447Z,52.33
2019-02-04T20:48:51.266Z,64.33
2019-02-04T20:51:23.509Z,58.53
2019-02-04T20:53:54.864Z,60.13
2019-02-04T20:56:25.522Z,66.90
2019-02-04T20:58:56.542Z,59.83
2019-02-04T21:01:27.683Z,51.10
2019-02-04T21:03:59.062Z,51.07
2019-02-04T21:06:30.363Z,50.90
2019-02-04T21:09:00.924Z,61.37
2019-02-04T21:11:47.207Z,122.23
2019-02-04T21:14:19.894Z,126.40
2019-02-04T21:16:50.278Z,119.13
2019-02-04T21:20:28.387Z,120.73
2019-02-04T21:23:06.248Z,128.23
2019-02-04T21:25:42.356Z,115.17
2019-02-04T21:35:43.242Z,114.87
2019-02-04T21:38:15.128Z,121.80
2019-02-04T21:40:45.430Z,123.70
2019-02-04T21:43:15.834Z,114.23
2019-02-04T21:45:46.272Z,115.73
2019-02-04T21:48:18.484Z,115.77
2019-02-04T21:50:49.231Z,114.10
2019-02-04T21:53:19.702Z,78.57
2019-02-04T21:55:51.449Z,51.90
2019-02-04T21:58:21.863Z,59.07
2019-02-04T22:01:10.834Z,58.37
2019-02-04T22:03:41.409Z,53.17
2019-02-04T22:10:31.185Z,53.30
2019-02-04T22:13:02.071Z,59.13
2019-02-04T22:15:32.364Z,60.77
2019-02-04T22:18:02.657Z,56.57
2019-02-04T22:20:32.943Z,56.40
2019-02-04T22:23:07.375Z,52.50
2019-02-04T22:29:19.148Z,35.73
2019-02-04T22:31:52.507Z,44.20
2019-02-04T22:34:23.712Z,41.13
2019-02-04T22:36:54.257Z,31.53
2019-02-04T22:39:24.912Z,40.03
2019-02-04T22:41:55.251Z,36.13
2019-02-04T22:44:25.706Z,39.87
2019-02-04T22:46:56.174Z,32.47
2019-02-04T22:49:26.497Z,33.70
2019-02-04T22:51:57.006Z,35.83
2019-02-04T22:54:27.353Z,36.63
2019-02-04T22:56:57.670Z,33.00
2019-02-04T22:59:29.006Z,40.60
2019-02-04T23:01:59.267Z,37.07
2019-02-04T23:04:29.705Z,37.67
2019-02-04T23:07:00.192Z,32.77
2019-02-04T23:09:30.470Z,34.93
2019-02-04T23:12:00.828Z,27.27
2019-02-04T23:14:31.118Z,29.17
2019-02-04T23:17:01.814Z,30.80
2019-02-04T23:19:32.088Z,27.63
2019-02-04T23:22:02.358Z,34.20
2019-02-04T23:24:32.606Z,17.73
2019-02-04T23:27:02.921Z,29.17
2019-02-04T23:29:33.190Z,24.67
2019-02-04T23:32:03.481Z,36.93
2019-02-04T23:34:33.760Z,35.73
2019-02-04T23:37:04.117Z,33.57
2019-02-04T23:39:34.481Z,30.53
2019-02-04T23:42:04.896Z,32.33
2019-02-04T23:44:35.549Z,35.50
2019-02-04T23:47:05.842Z,34.73
2019-02-04T23:49:36.097Z,41.77
2019-02-04T23:52:06.394Z,36.27
2019-02-04T23:54:36.795Z,37.50
2019-02-04T23:57:07.092Z,40.27
2019-02-04T23:59:37.383Z,37.60
